Bylot, Canada
Current Conditions -  °F | °C
As of 8:00 AM on Saturday 20 Dec 2014 (Local Time) from CYYQ Reporting Station
Light Snow Light Snow  
Wind Chill: 10°   Ceiling: 1100
Heat Index: 10°   Visibility: 10mi
Dew Point:   Wind: 3mph
Humidity: 92%   Direction: 190°S
Pressure: 30.02"   Gusts: NA
Location:  58.42°N, 94.13°W
Report Text: CYYQ 201400Z 19003KT 10SM -SN OVC011 M12/M13 A3002 RMK SC8 SLP169
Loading
Personal Weather Stations






























Interactive Weather Map New forecast layout! Learn more

10-Day Weather Forecast

Advertisements
Track Severe Weather on mobile